createdAt,value
2018-11-04T00:00:15.517Z,13.20
2018-11-04T00:02:43.780Z,13.20
2018-11-04T00:05:12.051Z,13.10
2018-11-04T00:07:40.302Z,13.20
2018-11-04T00:10:09.374Z,13.20
2018-11-04T00:12:37.652Z,13.20
2018-11-04T00:15:05.919Z,13.20
2018-11-04T00:17:34.952Z,13.20
2018-11-04T00:20:03.241Z,13.20
2018-11-04T00:22:31.474Z,13.10
2018-11-04T00:24:59.736Z,13.10
2018-11-04T00:27:28.007Z,13.10
2018-11-04T00:29:56.325Z,13.10
2018-11-04T00:32:24.542Z,13.10
2018-11-04T00:34:53.567Z,13.10
2018-11-04T00:37:21.833Z,13.10
2018-11-04T00:39:50.078Z,13.10
2018-11-04T00:42:18.344Z,13.10
2018-11-04T00:44:46.603Z,13.10
2018-11-04T00:47:14.900Z,13.10
2018-11-04T00:49:43.171Z,13.10
2018-11-04T00:52:11.422Z,13.10
2018-11-04T00:54:39.694Z,13.10
2018-11-04T00:57:07.946Z,13.00
2018-11-04T00:59:36.243Z,13.10
2018-11-04T01:02:04.514Z,13.10
2018-11-04T01:04:32.812Z,13.20
2018-11-04T01:07:01.044Z,13.20
2018-11-04T01:09:29.318Z,13.20
2018-11-04T01:11:57.629Z,13.10
2018-11-04T01:14:26.657Z,13.00
2018-11-04T01:16:55.874Z,13.00
2018-11-04T01:19:24.135Z,13.00
2018-11-04T01:21:53.166Z,13.00
2018-11-04T01:24:21.425Z,13.00
2018-11-04T01:26:49.669Z,13.00
2018-11-04T01:29:18.753Z,13.10
2018-11-04T01:31:46.970Z,13.10
2018-11-04T01:34:15.234Z,13.10
2018-11-04T01:36:44.546Z,13.20
2018-11-04T01:39:12.794Z,13.30
2018-11-04T01:41:41.820Z,13.30
2018-11-04T01:44:10.081Z,13.30
2018-11-04T01:46:38.351Z,13.30
2018-11-04T01:49:06.611Z,13.30
2018-11-04T01:51:35.643Z,13.40
2018-11-04T01:54:03.913Z,13.40
2018-11-04T01:56:32.805Z,13.40
2018-11-04T01:59:01.084Z,13.30
2018-11-04T02:01:29.346Z,13.30
2018-11-04T02:03:57.616Z,13.20
2018-11-04T02:06:25.879Z,13.20
2018-11-04T02:08:55.151Z,13.20
2018-11-04T02:11:23.399Z,13.20
2018-11-04T02:13:51.654Z,13.20
2018-11-04T02:16:19.923Z,13.10
2018-11-04T02:18:48.196Z,13.10
2018-11-04T02:21:17.190Z,13.10
2018-11-04T02:23:45.459Z,13.10
2018-11-04T02:26:13.722Z,13.10
2018-11-04T02:28:41.974Z,13.10
2018-11-04T02:31:11.263Z,13.10
2018-11-04T02:33:41.025Z,13.00
2018-11-04T02:36:09.264Z,13.00
2018-11-04T02:38:38.289Z,13.10
2018-11-04T02:41:06.570Z,13.00
2018-11-04T02:43:34.828Z,13.00
2018-11-04T02:46:03.124Z,13.00
2018-11-04T02:48:31.382Z,13.00
2018-11-04T02:50:59.647Z,13.00
2018-11-04T02:53:27.903Z,13.10
2018-11-04T02:55:56.966Z,13.20
2018-11-04T02:58:25.226Z,13.20
2018-11-04T03:00:53.539Z,13.10
2018-11-04T03:03:22.196Z,13.10
2018-11-04T03:05:50.446Z,13.10
2018-11-04T03:08:18.702Z,13.00
2018-11-04T03:10:47.019Z,13.00
2018-11-04T03:13:15.234Z,13.00
2018-11-04T03:15:44.246Z,13.00
2018-11-04T03:18:12.523Z,13.00
2018-11-04T03:20:40.770Z,13.00
2018-11-04T03:23:10.055Z,13.10
2018-11-04T03:25:38.303Z,13.10
2018-11-04T03:28:06.559Z,13.10
2018-11-04T03:30:34.830Z,13.10
2018-11-04T03:33:03.091Z,13.10
2018-11-04T03:35:31.393Z,13.10
2018-11-04T03:37:59.643Z,13.10
2018-11-04T03:40:27.922Z,13.10
2018-11-04T03:42:56.179Z,13.10
2018-11-04T03:45:25.211Z,13.10
2018-11-04T03:47:53.457Z,13.10
2018-11-04T03:50:21.727Z,13.10
2018-11-04T03:52:49.991Z,13.10
2018-11-04T03:55:19.026Z,13.00
2018-11-04T03:57:47.338Z,13.00
2018-11-04T04:00:15.599Z,13.00
2018-11-04T04:02:43.878Z,13.00
2018-11-04T04:05:12.144Z,13.00
2018-11-04T04:07:40.422Z,13.00
2018-11-04T04:10:08.707Z,13.00
2018-11-04T04:12:36.977Z,13.00
2018-11-04T04:15:05.255Z,13.00
2018-11-04T04:17:33.519Z,13.00
2018-11-04T04:20:01.803Z,13.00
2018-11-04T04:22:30.039Z,13.00
2018-11-04T04:24:58.311Z,13.00
2018-11-04T04:27:27.815Z,13.00
2018-11-04T04:29:56.847Z,13.00
2018-11-04T04:32:25.099Z,13.00
2018-11-04T04:34:53.963Z,13.00
2018-11-04T04:37:22.518Z,13.00
2018-11-04T04:39:50.826Z,13.00
2018-11-04T04:42:19.091Z,13.10
2018-11-04T04:44:47.556Z,13.10
2018-11-04T04:47:15.794Z,13.10
2018-11-04T04:49:44.857Z,13.10
2018-11-04T04:52:13.290Z,13.10
2018-11-04T04:54:41.543Z,13.10
2018-11-04T04:57:10.579Z,13.10
2018-11-04T04:59:39.618Z,13.10
2018-11-04T05:02:07.870Z,13.10
2018-11-04T05:04:36.143Z,13.10
2018-11-04T05:07:04.414Z,13.10
2018-11-04T05:09:32.663Z,13.10
2018-11-04T05:12:01.704Z,13.10
2018-11-04T05:14:29.950Z,13.10
2018-11-04T05:16:58.226Z,13.10
2018-11-04T05:19:26.486Z,13.10
2018-11-04T05:21:55.507Z,13.00
2018-11-04T05:24:23.782Z,13.00
2018-11-04T05:26:52.050Z,13.00
2018-11-04T05:29:20.306Z,13.00
2018-11-04T05:31:49.319Z,13.00
2018-11-04T05:34:17.590Z,13.00
2018-11-04T05:36:45.843Z,13.00
2018-11-04T05:39:14.911Z,13.00
2018-11-04T05:41:43.166Z,13.00
2018-11-04T05:44:11.419Z,13.20
2018-11-04T05:46:39.679Z,13.20
2018-11-04T05:49:07.950Z,13.30
2018-11-04T05:51:36.233Z,13.30
2018-11-04T05:54:04.482Z,13.30
2018-11-04T05:56:32.746Z,13.30
2018-11-04T05:59:01.003Z,13.30
2018-11-04T06:01:30.025Z,13.40
2018-11-04T06:03:59.055Z,13.40
2018-11-04T06:06:27.312Z,13.40
2018-11-04T06:08:56.342Z,13.40
2018-11-04T06:11:24.600Z,13.40
2018-11-04T06:13:54.614Z,13.40
2018-11-04T06:16:23.613Z,13.40
2018-11-04T06:18:51.862Z,13.50
2018-11-04T06:21:20.117Z,13.40
2018-11-04T06:23:48.377Z,13.40
2018-11-04T06:26:16.643Z,13.30
2018-11-04T06:28:44.920Z,13.30
2018-11-04T06:31:13.193Z,13.30
2018-11-04T06:33:41.464Z,13.30
2018-11-04T06:36:09.731Z,13.20
2018-11-04T06:38:37.986Z,13.20
2018-11-04T06:41:06.354Z,13.20
2018-11-04T06:43:34.539Z,13.10
2018-11-04T06:46:02.797Z,13.10
2018-11-04T06:48:31.058Z,13.10
2018-11-04T06:51:00.094Z,13.10
2018-11-04T06:53:28.670Z,13.30
2018-11-04T06:55:56.926Z,13.10
2018-11-04T06:58:25.177Z,13.10
2018-11-04T07:00:54.242Z,13.10
2018-11-04T07:03:23.074Z,13.10
2018-11-04T07:05:51.334Z,13.10
2018-11-04T07:08:20.371Z,13.30
2018-11-04T07:10:48.635Z,13.30
2018-11-04T07:13:16.879Z,13.50
2018-11-04T07:15:45.958Z,13.40
2018-11-04T07:18:14.273Z,13.40
2018-11-04T07:20:42.550Z,13.40
2018-11-04T07:23:10.800Z,13.50
2018-11-04T07:25:39.931Z,13.40
2018-11-04T07:28:08.075Z,13.40
2018-11-04T07:30:37.101Z,13.80
2018-11-04T07:33:05.382Z,13.80
2018-11-04T07:35:33.642Z,13.90
2018-11-04T07:38:02.214Z,13.90
2018-11-04T07:40:30.462Z,13.90
2018-11-04T07:42:59.485Z,13.70
2018-11-04T07:45:27.751Z,13.70
2018-11-04T07:47:56.010Z,13.70
2018-11-04T07:50:25.155Z,13.60
2018-11-04T07:52:53.305Z,13.60
2018-11-04T07:55:21.576Z,13.60
2018-11-04T07:57:49.842Z,13.70
2018-11-04T08:00:18.102Z,13.70
2018-11-04T08:02:47.123Z,13.80
2018-11-04T08:05:15.387Z,13.80
2018-11-04T08:07:43.650Z,13.80
2018-11-04T08:10:11.903Z,13.80
2018-11-04T08:12:40.178Z,13.80
2018-11-04T08:15:08.426Z,13.80
2018-11-04T08:17:37.685Z,13.80
2018-11-04T08:20:05.943Z,13.80
2018-11-04T08:22:34.974Z,13.90
2018-11-04T08:25:03.351Z,13.90
2018-11-04T08:27:31.608Z,13.90
2018-11-04T08:29:59.850Z,14.00
2018-11-04T08:32:28.884Z,14.00
2018-11-04T08:34:57.235Z,14.00
2018-11-04T08:37:26.247Z,14.10
2018-11-04T08:39:54.642Z,14.10
2018-11-04T08:42:22.767Z,14.20
2018-11-04T08:44:51.798Z,14.20
2018-11-04T08:47:20.073Z,14.30
2018-11-04T08:49:48.322Z,14.20
2018-11-04T08:52:16.596Z,14.20
2018-11-04T08:54:45.614Z,14.30
2018-11-04T08:57:13.887Z,14.30
2018-11-04T08:59:42.139Z,14.30
2018-11-04T09:02:11.463Z,14.40
2018-11-04T09:04:39.718Z,14.30
2018-11-04T09:07:07.976Z,14.40
2018-11-04T09:09:37.020Z,14.70
2018-11-04T09:12:05.253Z,14.70
2018-11-04T09:14:34.306Z,14.70
2018-11-04T09:17:02.586Z,14.70
2018-11-04T09:19:30.838Z,14.80
2018-11-04T09:21:59.302Z,14.90
2018-11-04T09:24:27.385Z,14.80
2018-11-04T09:26:55.644Z,14.70
2018-11-04T09:29:23.942Z,14.50
2018-11-04T09:31:52.211Z,14.60
2018-11-04T09:34:20.470Z,14.60
2018-11-04T09:36:48.726Z,14.50
2018-11-04T09:39:17.774Z,14.50
2018-11-04T09:41:46.052Z,14.50
2018-11-04T09:44:14.323Z,14.60
2018-11-04T09:46:42.587Z,14.60
2018-11-04T09:49:10.867Z,14.60
2018-11-04T09:51:39.114Z,14.70
2018-11-04T09:54:07.422Z,14.70
2018-11-04T09:56:36.036Z,14.60
2018-11-04T09:59:04.263Z,14.60
2018-11-04T10:01:33.100Z,14.70
2018-11-04T10:04:02.155Z,14.70
2018-11-04T10:06:30.423Z,14.70
2018-11-04T10:08:58.713Z,14.80
2018-11-04T10:11:26.998Z,14.70
2018-11-04T10:13:56.010Z,14.70
2018-11-04T10:16:24.346Z,14.70
2018-11-04T10:18:52.632Z,14.90
2018-11-04T10:21:20.795Z,14.80
2018-11-04T10:23:49.047Z,14.80
2018-11-04T10:26:17.321Z,15.00
2018-11-04T10:28:45.575Z,15.00
2018-11-04T10:31:13.832Z,15.10
2018-11-04T10:33:42.886Z,15.10
2018-11-04T10:36:11.188Z,15.10
2018-11-04T10:38:39.427Z,15.10
2018-11-04T10:41:07.704Z,15.10
2018-11-04T10:43:35.986Z,15.10
2018-11-04T10:46:04.256Z,15.00
2018-11-04T10:48:32.503Z,15.10
2018-11-04T10:51:00.801Z,15.10
2018-11-04T10:53:29.047Z,15.00
2018-11-04T10:55:57.364Z,15.00
2018-11-04T10:58:25.887Z,14.90
2018-11-04T11:00:54.131Z,14.90
2018-11-04T11:03:22.398Z,15.20
2018-11-04T11:05:50.673Z,15.20
2018-11-04T11:08:18.941Z,15.30
2018-11-04T11:10:47.273Z,15.30
2018-11-04T11:13:15.486Z,15.40
2018-11-04T11:15:43.761Z,15.40
2018-11-04T11:18:12.049Z,15.40
2018-11-04T11:20:40.297Z,15.40
2018-11-04T11:23:08.680Z,15.50
2018-11-04T11:25:36.868Z,15.50
2018-11-04T11:28:05.155Z,15.50
2018-11-04T11:30:34.183Z,15.50
2018-11-04T11:33:03.203Z,15.50
2018-11-04T11:35:31.455Z,15.40
2018-11-04T11:38:00.565Z,15.60
2018-11-04T11:40:28.754Z,15.60
2018-11-04T11:42:57.026Z,15.70
2018-11-04T11:45:25.298Z,15.80
2018-11-04T11:47:53.549Z,15.80
2018-11-04T11:50:22.619Z,15.90
2018-11-04T11:52:50.890Z,15.90
2018-11-04T11:55:19.154Z,15.80
2018-11-04T11:57:47.469Z,15.80
2018-11-04T12:00:16.491Z,16.00
2018-11-04T12:02:44.759Z,16.00
2018-11-04T12:05:13.842Z,15.80
2018-11-04T12:07:42.846Z,15.70
2018-11-04T12:10:11.134Z,15.70
2018-11-04T12:12:39.404Z,15.60
2018-11-04T12:15:07.675Z,15.70
2018-11-04T12:17:35.985Z,15.60
2018-11-04T12:20:04.622Z,15.70
2018-11-04T12:22:32.899Z,15.70
2018-11-04T12:25:01.195Z,15.70
2018-11-04T12:27:29.427Z,15.70
2018-11-04T12:29:58.462Z,15.70
2018-11-04T12:32:26.706Z,15.70
2018-11-04T12:34:55.310Z,15.80
2018-11-04T12:37:23.577Z,15.90
2018-11-04T12:39:51.847Z,15.80
2018-11-04T12:42:20.885Z,15.90
2018-11-04T12:44:49.163Z,15.90
2018-11-04T12:47:18.829Z,15.80
2018-11-04T12:49:47.090Z,15.80
2018-11-04T12:52:16.215Z,15.90
2018-11-04T12:54:44.394Z,15.90
2018-11-04T12:57:12.650Z,15.90
2018-11-04T12:59:40.916Z,16.10
2018-11-04T13:02:09.241Z,16.10
2018-11-04T13:04:38.239Z,16.10
2018-11-04T13:07:06.503Z,16.10
2018-11-04T13:09:35.075Z,16.10
2018-11-04T13:12:03.370Z,16.00
2018-11-04T13:14:31.637Z,15.90
2018-11-04T13:17:00.639Z,15.90
2018-11-04T13:19:28.910Z,15.80
2018-11-04T13:21:57.206Z,15.90
2018-11-04T13:24:25.444Z,16.00
2018-11-04T13:26:53.705Z,16.00
2018-11-04T13:29:21.991Z,16.00
2018-11-04T13:31:50.250Z,15.90
2018-11-04T13:34:18.522Z,15.90
2018-11-04T13:36:46.789Z,16.00
2018-11-04T13:39:15.334Z,16.10
2018-11-04T13:41:43.590Z,16.00
2018-11-04T13:44:11.850Z,16.00
2018-11-04T13:46:40.137Z,15.90
2018-11-04T13:49:08.445Z,15.90
2018-11-04T13:51:36.678Z,15.80
2018-11-04T13:54:04.943Z,15.70
2018-11-04T13:56:33.186Z,15.70
2018-11-04T13:59:01.584Z,15.70
2018-11-04T14:01:30.586Z,15.70
2018-11-04T14:03:58.910Z,15.60
2018-11-04T14:06:27.249Z,15.80
2018-11-04T14:08:55.503Z,15.70
2018-11-04T14:11:23.779Z,15.70
2018-11-04T14:13:52.046Z,15.70
2018-11-04T14:16:20.317Z,15.70
2018-11-04T14:18:48.566Z,15.80
2018-11-04T14:21:17.839Z,15.80
2018-11-04T14:23:46.144Z,15.80
2018-11-04T14:26:14.446Z,15.70
2018-11-04T14:28:42.723Z,15.70
2018-11-04T14:31:11.077Z,15.80
2018-11-04T14:33:40.043Z,15.70
2018-11-04T14:36:08.282Z,15.70
2018-11-04T14:38:36.606Z,15.70
2018-11-04T14:41:04.843Z,15.80
2018-11-04T14:43:33.863Z,15.70
2018-11-04T14:46:02.136Z,15.70
2018-11-04T14:48:30.429Z,15.60
2018-11-04T14:50:59.767Z,15.70
2018-11-04T14:53:28.015Z,15.60
2018-11-04T14:55:57.040Z,15.70
2018-11-04T14:58:25.316Z,15.70
2018-11-04T15:00:53.618Z,15.90
2018-11-04T15:03:22.586Z,15.70
2018-11-04T15:05:50.866Z,15.70
2018-11-04T15:08:19.147Z,15.60
2018-11-04T15:10:47.403Z,15.60
2018-11-04T15:13:15.709Z,15.70
2018-11-04T15:15:44.020Z,15.70
2018-11-04T15:18:12.267Z,15.50
2018-11-04T15:20:40.540Z,15.50
2018-11-04T15:23:08.838Z,15.50
2018-11-04T15:25:37.075Z,15.60
2018-11-04T15:28:05.351Z,15.50
2018-11-04T15:30:34.388Z,15.30
2018-11-04T15:33:03.438Z,15.30
2018-11-04T15:35:31.721Z,15.30
2018-11-04T15:38:00.789Z,15.30
2018-11-04T15:40:29.816Z,15.40
2018-11-04T15:42:58.035Z,15.40
2018-11-04T15:45:27.084Z,15.50
2018-11-04T15:47:55.360Z,15.40
2018-11-04T15:50:23.642Z,15.40
2018-11-04T15:52:51.898Z,15.30
2018-11-04T15:55:20.184Z,15.30
2018-11-04T15:57:48.440Z,15.30
2018-11-04T16:00:16.706Z,15.20
2018-11-04T16:02:45.040Z,15.20
2018-11-04T16:05:13.225Z,15.10
2018-11-04T16:07:42.254Z,14.90
2018-11-04T16:10:10.526Z,14.90
2018-11-04T16:12:38.899Z,15.00
2018-11-04T16:15:08.009Z,14.90
2018-11-04T16:17:36.289Z,14.90
2018-11-04T16:20:04.554Z,14.90
2018-11-04T16:22:32.896Z,14.80
2018-11-04T16:25:01.238Z,14.80
2018-11-04T16:27:29.486Z,14.80
2018-11-04T16:29:57.830Z,14.80
2018-11-04T16:32:26.098Z,14.80
2018-11-04T16:34:54.358Z,14.80
2018-11-04T16:37:23.455Z,14.90
2018-11-04T16:39:51.735Z,14.90
2018-11-04T16:42:20.758Z,15.00
2018-11-04T16:44:49.016Z,15.00
2018-11-04T16:47:17.291Z,15.10
2018-11-04T16:49:45.581Z,15.20
2018-11-04T16:52:13.814Z,15.10
2018-11-04T16:54:42.851Z,15.00
2018-11-04T16:57:11.108Z,15.00
2018-11-04T16:59:39.392Z,14.90
2018-11-04T17:02:08.398Z,14.80
2018-11-04T17:04:36.955Z,14.70
2018-11-04T17:07:04.990Z,14.90
2018-11-04T17:09:33.366Z,14.90
2018-11-04T17:12:01.863Z,14.90
2018-11-04T17:14:30.926Z,14.80
2018-11-04T17:16:59.186Z,14.80
2018-11-04T17:19:27.443Z,14.80
2018-11-04T17:21:55.715Z,14.90
2018-11-04T17:24:23.966Z,14.80
2018-11-04T17:26:53.221Z,14.80
2018-11-04T17:29:21.502Z,14.80
2018-11-04T17:31:50.490Z,14.70
2018-11-04T17:34:18.756Z,14.70
2018-11-04T17:36:47.058Z,14.70
2018-11-04T17:39:15.596Z,14.80
2018-11-04T17:41:43.877Z,14.70
2018-11-04T17:44:12.148Z,14.80
2018-11-04T17:46:41.373Z,14.90
2018-11-04T17:49:09.608Z,14.90
2018-11-04T17:51:37.920Z,14.80
2018-11-04T17:54:06.222Z,14.90
2018-11-04T17:56:36.023Z,14.80
2018-11-04T17:59:04.319Z,14.70
2018-11-04T18:01:33.376Z,14.90
2018-11-04T18:04:01.629Z,14.90
2018-11-04T18:06:30.207Z,14.90
2018-11-04T18:08:58.383Z,14.90
2018-11-04T18:11:26.629Z,14.90
2018-11-04T18:13:55.012Z,14.90
2018-11-04T18:16:23.189Z,14.90
2018-11-04T18:18:51.446Z,14.90
2018-11-04T18:21:20.482Z,14.90
2018-11-04T18:23:48.743Z,14.90
2018-11-04T18:26:17.106Z,14.90
2018-11-04T18:28:45.288Z,14.90
2018-11-04T18:31:13.560Z,15.00
2018-11-04T18:33:42.107Z,15.00
2018-11-04T18:36:11.487Z,14.90
2018-11-04T18:38:39.795Z,14.90
2018-11-04T18:41:09.623Z,14.80
2018-11-04T18:43:38.687Z,14.90
2018-11-04T18:46:06.899Z,14.90
2018-11-04T18:48:35.189Z,15.00
2018-11-04T18:51:03.444Z,15.00
2018-11-04T18:53:31.740Z,15.00
2018-11-04T18:56:00.011Z,15.10
2018-11-04T18:58:28.282Z,15.10
2018-11-04T19:00:56.535Z,15.00
2018-11-04T19:03:25.925Z,15.00
2018-11-04T19:05:54.956Z,14.90
2018-11-04T19:08:23.217Z,14.90
2018-11-04T19:10:51.499Z,15.00
2018-11-04T19:13:19.770Z,14.90
2018-11-04T19:15:48.065Z,14.90
2018-11-04T19:18:16.334Z,14.80
2018-11-04T19:20:44.593Z,14.80
2018-11-04T19:23:13.150Z,14.90
2018-11-04T19:25:42.176Z,14.80
2018-11-04T19:28:10.451Z,14.80
2018-11-04T19:30:38.740Z,14.70
2018-11-04T19:33:06.979Z,14.70
2018-11-04T19:35:35.256Z,14.80
2018-11-04T19:38:04.291Z,14.80
2018-11-04T19:40:32.556Z,14.80
2018-11-04T19:43:00.826Z,14.80
2018-11-04T19:45:29.869Z,14.70
2018-11-04T19:47:58.160Z,14.70
2018-11-04T19:50:26.361Z,14.70
2018-11-04T19:52:54.598Z,14.70
2018-11-04T19:55:23.656Z,14.70
2018-11-04T19:57:51.910Z,14.70
2018-11-04T20:00:20.176Z,14.70
2018-11-04T20:02:48.457Z,14.60
2018-11-04T20:05:16.792Z,14.50
2018-11-04T20:07:45.722Z,14.60
2018-11-04T20:10:13.975Z,14.60
2018-11-04T20:12:43.011Z,14.50
2018-11-04T20:15:11.258Z,14.50
2018-11-04T20:17:39.503Z,14.50
2018-11-04T20:20:09.548Z,14.60
2018-11-04T20:22:38.449Z,14.60
2018-11-04T20:28:04.575Z,14.60
2018-11-04T20:30:32.913Z,14.20
2018-11-04T20:33:01.119Z,14.40
2018-11-04T20:35:29.385Z,14.50
2018-11-04T20:37:58.428Z,14.60
2018-11-04T20:40:43.801Z,14.60
2018-11-04T20:43:12.047Z,14.50
2018-11-04T20:45:41.082Z,14.40
2018-11-04T20:48:09.610Z,14.40
2018-11-04T20:50:57.415Z,14.30
2018-11-04T20:53:25.690Z,14.30
2018-11-04T20:55:53.979Z,14.40
2018-11-04T20:58:22.402Z,14.40
2018-11-04T21:00:50.483Z,14.30
2018-11-04T21:03:18.784Z,14.40
2018-11-04T21:05:47.026Z,14.40
2018-11-04T21:08:15.298Z,14.50
2018-11-04T21:10:43.558Z,14.60
2018-11-04T21:13:11.807Z,14.60
2018-11-04T21:15:40.940Z,14.50
2018-11-04T21:18:09.936Z,14.50
2018-11-04T21:20:38.184Z,14.50
2018-11-04T21:23:06.454Z,14.50
2018-11-04T21:25:34.899Z,14.50
2018-11-04T21:28:03.908Z,14.60
2018-11-04T21:30:32.006Z,14.60
2018-11-04T21:33:00.310Z,14.60
2018-11-04T21:35:28.586Z,14.70
2018-11-04T21:37:56.915Z,14.70
2018-11-04T21:40:25.391Z,14.70
2018-11-04T21:42:53.713Z,14.70
2018-11-04T21:45:21.917Z,14.70
2018-11-04T21:47:50.188Z,14.70
2018-11-04T21:50:18.464Z,14.60
2018-11-04T21:52:46.730Z,14.70
2018-11-04T21:55:15.070Z,14.80
2018-11-04T21:57:43.250Z,14.70
2018-11-04T22:00:11.523Z,14.80
2018-11-04T22:02:39.911Z,14.70
2018-11-04T22:05:08.053Z,14.60
2018-11-04T22:07:37.091Z,14.40
2018-11-04T22:10:05.355Z,14.50
2018-11-04T22:12:34.405Z,14.50
2018-11-04T22:15:02.657Z,14.60
2018-11-04T22:17:30.979Z,14.40
2018-11-04T22:20:00.016Z,14.50
2018-11-04T22:22:28.261Z,14.50
2018-11-04T22:24:56.538Z,14.40
2018-11-04T22:27:24.795Z,14.40
2018-11-04T22:29:53.058Z,14.40
2018-11-04T22:32:22.077Z,14.40
2018-11-04T22:34:50.361Z,14.40
2018-11-04T22:37:18.602Z,14.30
2018-11-04T22:39:47.637Z,14.30
2018-11-04T22:42:15.984Z,14.30
2018-11-04T22:44:44.882Z,14.30
2018-11-04T22:47:13.189Z,14.30
2018-11-04T22:49:41.454Z,14.30
2018-11-04T22:52:09.698Z,14.30
2018-11-04T22:54:37.954Z,14.30
2018-11-04T22:57:07.363Z,14.20
2018-11-04T22:59:36.395Z,14.20
2018-11-04T23:02:04.651Z,14.20
2018-11-04T23:04:33.153Z,14.20
2018-11-04T23:07:01.410Z,14.30
2018-11-04T23:09:29.662Z,14.30
2018-11-04T23:11:57.942Z,14.40
2018-11-04T23:14:26.224Z,14.50
2018-11-04T23:16:55.233Z,14.60
2018-11-04T23:19:23.536Z,14.50
2018-11-04T23:21:51.775Z,14.50
2018-11-04T23:24:20.050Z,14.40
2018-11-04T23:26:48.319Z,14.30
2018-11-04T23:29:16.579Z,14.40
2018-11-04T23:31:44.857Z,14.50
2018-11-04T23:34:13.899Z,14.30
2018-11-04T23:36:42.144Z,14.30
2018-11-04T23:39:10.406Z,14.30
2018-11-04T23:41:38.679Z,14.30
2018-11-04T23:44:06.984Z,14.30
2018-11-04T23:46:35.716Z,14.30
2018-11-04T23:49:03.955Z,14.20
2018-11-04T23:51:32.312Z,14.20
2018-11-04T23:54:00.582Z,14.20
2018-11-04T23:56:28.837Z,14.20
2018-11-04T23:58:57.358Z,14.20
